Time;durP1;ratioP1;P1;durP2;ratioP2;P2;SDS_P1;SDS_P2;PMS_P1;PMS_P2;Temp;Humidity;BMP_temperature;BMP_pressure;BME280_temperature;BME280_humidity;BME280_pressure;Samples;Min_cycle;Max_cycle;Signal;HPM_P1;HPM_P2
2024/01/28 00:01:42;;;;;;;13.98;6.13;;;2.50;99.90;;;;;;4987063;28;20046;-82
2024/01/28 00:04:09;;;;;;;14.25;5.72;;;0.80;99.90;;;;;;4997426;28;20416;-81
2024/01/28 00:06:34;;;;;;;14.70;5.20;;;2.40;99.90;;;;;;4985832;28;20046;-82
2024/01/28 00:09:00;;;;;;;16.67;6.70;;;3.40;99.90;;;;;;4969665;28;20112;-82
2024/01/28 00:11:26;;;;;;;15.85;5.40;;;2.30;99.90;;;;;;4970238;28;20048;-82
2024/01/28 00:13:52;;;;;;;16.67;5.32;;;2.30;99.90;;;;;;4985987;28;20041;-82
2024/01/28 00:16:19;;;;;;;13.43;5.60;;;2.20;99.90;;;;;;4986543;28;20484;-82
2024/01/28 00:18:45;;;;;;;12.93;5.65;;;2.20;99.90;;;;;;4968286;28;20484;-82
2024/01/28 00:21:11;;;;;;;13.43;5.38;;;2.30;99.90;;;;;;4962743;28;20038;-82
2024/01/28 00:23:37;;;;;;;14.00;5.47;;;2.10;99.90;;;;;;4961166;28;20034;-81
2024/01/28 00:26:04;;;;;;;13.77;5.35;;;2.40;99.90;;;;;;4964333;28;20118;-82
2024/01/28 00:28:29;;;;;;;14.13;5.10;;;2.10;99.90;;;;;;4987777;28;20530;-82
2024/01/28 00:30:56;;;;;;;15.50;5.70;;;2.00;99.90;;;;;;4964856;28;20219;-82
2024/01/28 00:33:22;;;;;;;14.15;5.22;;;2.80;99.90;;;;;;4952976;28;20034;-81
2024/01/28 00:35:48;;;;;;;14.45;5.35;;;2.00;99.90;;;;;;4959874;28;20535;-82
2024/01/28 00:38:13;;;;;;;13.27;5.20;;;2.00;99.90;;;;;;4945620;28;1160025;-82
2024/01/28 00:40:39;;;;;;;16.33;5.05;;;3.00;99.90;;;;;;4986723;28;20053;-82
2024/01/28 00:43:05;;;;;;;14.95;6.00;;;2.40;99.90;;;;;;4970605;28;20401;-82
2024/01/28 00:45:31;;;;;;;12.30;5.57;;;2.80;99.90;;;;;;4986974;28;20265;-82
2024/01/28 00:47:58;;;;;;;16.92;5.68;;;2.10;99.90;;;;;;4983832;28;20049;-82
2024/01/28 00:50:24;;;;;;;12.15;5.10;;;2.20;99.90;;;;;;4962665;28;20069;-82
2024/01/28 00:52:49;;;;;;;15.15;4.68;;;2.00;99.90;;;;;;4965244;28;20164;-82
2024/01/28 00:55:15;;;;;;;16.23;6.18;;;2.00;99.90;;;;;;4953880;28;20042;-82
2024/01/28 00:57:41;;;;;;;15.88;5.45;;;2.10;99.90;;;;;;5001520;28;20046;-82
2024/01/28 01:00:08;;;;;;;13.75;5.38;;;2.40;99.90;;;;;;4984796;28;20132;-82
2024/01/28 01:02:34;;;;;;;14.63;5.85;;;2.00;99.90;;;;;;4969899;28;20042;-82
2024/01/28 01:04:59;;;;;;;15.00;5.25;;;2.40;99.90;;;;;;4969664;28;20065;-82
2024/01/28 01:07:26;;;;;;;13.55;5.85;;;3.10;99.90;;;;;;4985311;28;21099;-82
2024/01/28 01:09:52;;;;;;;14.52;4.88;;;3.40;99.90;;;;;;4999862;28;20034;-82
2024/01/28 01:12:18;;;;;;;12.75;5.18;;;2.00;99.90;;;;;;4984256;28;20084;-82
2024/01/28 01:14:43;;;;;;;12.93;4.60;;;2.00;99.90;;;;;;4969421;28;20038;-82
2024/01/28 01:17:09;;;;;;;14.63;5.30;;;3.30;99.90;;;;;;4984015;28;20520;-82
2024/01/28 01:19:35;;;;;;;15.98;5.18;;;1.00;99.90;;;;;;4969721;28;20035;-82
2024/01/28 01:22:02;;;;;;;14.02;5.00;;;2.30;99.90;;;;;;4972613;28;20038;-82
2024/01/28 01:24:28;;;;;;;13.10;4.85;;;2.10;99.90;;;;;;4952863;28;20043;-81
2024/01/28 01:26:54;;;;;;;15.18;5.43;;;2.70;99.90;;;;;;4969386;28;20440;-82
2024/01/28 01:29:20;;;;;;;12.50;5.30;;;2.10;99.90;;;;;;4935178;28;20190;-82
2024/01/28 01:31:47;;;;;;;14.75;6.13;;;2.70;99.90;;;;;;4985448;28;20125;-82
2024/01/28 01:34:13;;;;;;;15.75;5.45;;;2.10;99.90;;;;;;4952829;28;20038;-82
2024/01/28 01:36:43;;;;;;;12.77;4.50;;;3.70;99.90;;;;;;4984148;28;20039;-82
2024/01/28 01:39:09;;;;;;;12.85;5.15;;;2.10;99.90;;;;;;4962416;28;20054;-82
2024/01/28 01:41:35;;;;;;;15.98;6.05;;;2.00;99.90;;;;;;4967251;28;20081;-82
2024/01/28 01:44:01;;;;;;;11.40;4.95;;;2.10;99.90;;;;;;4994638;28;20135;-82
2024/01/28 01:46:27;;;;;;;16.73;5.40;;;2.10;99.90;;;;;;4958958;28;20133;-82
2024/01/28 01:48:53;;;;;;;15.57;5.40;;;3.50;99.90;;;;;;4967651;28;20039;-82
2024/01/28 01:51:21;;;;;;;15.77;5.15;;;2.00;99.90;;;;;;4985674;28;20066;-83
2024/01/28 01:53:48;;;;;;;13.95;4.80;;;2.10;99.90;;;;;;4960105;28;20045;-82
2024/01/28 01:56:14;;;;;;;12.30;4.82;;;2.50;99.90;;;;;;4969290;28;20095;-82
2024/01/28 01:58:40;;;;;;;14.73;5.80;;;2.20;99.90;;;;;;4967218;28;20400;-82
2024/01/28 02:01:07;;;;;;;14.80;5.10;;;2.40;99.90;;;;;;4967225;28;20061;-82
2024/01/28 02:03:33;;;;;;;13.13;5.25;;;2.00;99.90;;;;;;4982398;28;20445;-82
2024/01/28 02:05:59;;;;;;;15.77;5.13;;;2.50;99.90;;;;;;4969222;28;20039;-82
2024/01/28 02:08:26;;;;;;;14.70;5.50;;;2.00;99.90;;;;;;4986276;28;20085;-82
2024/01/28 02:10:52;;;;;;;14.32;5.38;;;2.50;99.90;;;;;;4966996;28;20169;-82
2024/01/28 02:13:17;;;;;;;10.88;4.70;;;2.60;99.90;;;;;;4968228;28;20117;-82
2024/01/28 02:15:43;;;;;;;13.70;5.35;;;2.00;99.90;;;;;;4985374;28;20408;-82
2024/01/28 02:18:09;;;;;;;16.65;5.20;;;2.40;99.90;;;;;;4983785;28;20095;-82
2024/01/28 02:20:35;;;;;;;14.27;5.15;;;2.60;99.90;;;;;;4950187;28;21324;-82
2024/01/28 02:23:03;;;;;;;14.93;5.70;;;2.00;99.90;;;;;;4999995;28;20038;-82
2024/01/28 02:25:29;;;;;;;18.27;6.18;;;1.90;99.90;;;;;;4969159;28;20038;-82
2024/01/28 02:27:54;;;;;;;12.63;5.00;;;2.70;99.90;;;;;;4952441;28;20566;-82
2024/01/28 02:30:20;;;;;;;14.55;5.13;;;2.00;99.90;;;;;;4967756;28;20054;-82
2024/01/28 02:32:50;;;;;;;12.30;5.43;;;2.00;99.90;;;;;;4951792;28;20506;-82
2024/01/28 02:35:17;;;;;;;15.18;5.18;;;1.90;99.90;;;;;;4969358;28;20058;-82
2024/01/28 02:37:43;;;;;;;15.90;5.40;;;;;;;;;;4966566;28;20030;-82
2024/01/28 02:40:09;;;;;;;15.57;5.85;;;1.90;99.90;;;;;;4965624;28;20056;-81
2024/01/28 02:42:35;;;;;;;14.25;5.53;;;1.90;99.90;;;;;;4984861;28;20046;-82
2024/01/28 02:45:01;;;;;;;17.40;5.63;;;2.40;99.90;;;;;;4984361;28;20030;-82
2024/01/28 02:47:27;;;;;;;14.43;6.05;;;1.90;99.90;;;;;;4985122;28;20204;-82
2024/01/28 02:49:52;;;;;;;17.50;6.18;;;2.50;99.90;;;;;;4983452;28;20526;-82
2024/01/28 02:52:19;;;;;;;13.23;6.07;;;3.70;99.90;;;;;;4962673;28;20049;-82
2024/01/28 02:54:44;;;;;;;14.40;5.95;;;1.90;99.90;;;;;;4968173;28;20035;-82
2024/01/28 02:57:10;;;;;;;18.83;6.15;;;1.90;99.90;;;;;;4981981;28;20031;-82
2024/01/28 02:59:36;;;;;;;18.23;5.32;;;2.30;99.90;;;;;;4967999;28;20181;-82
2024/01/28 03:02:02;;;;;;;20.00;6.82;;;2.30;99.90;;;;;;4962985;28;20136;-82
2024/01/28 03:04:28;;;;;;;13.93;5.88;;;1.90;99.90;;;;;;4952734;28;20046;-82
2024/01/28 03:06:54;;;;;;;16.13;5.90;;;3.50;99.90;;;;;;4966641;28;20049;-82
2024/01/28 03:09:20;;;;;;;14.43;5.82;;;1.90;99.90;;;;;;4986028;28;21122;-82
2024/01/28 03:11:45;;;;;;;16.20;6.03;;;1.90;99.90;;;;;;4993906;28;20069;-82
2024/01/28 03:14:11;;;;;;;13.90;5.15;;;2.00;99.90;;;;;;4964597;28;20076;-82
2024/01/28 03:16:37;;;;;;;14.68;5.85;;;1.90;99.90;;;;;;5005036;28;20046;-82
2024/01/28 03:19:03;;;;;;;13.88;6.00;;;3.20;99.90;;;;;;4972280;28;20482;-82
2024/01/28 03:21:29;;;;;;;11.00;5.25;;;3.60;99.90;;;;;;4967985;28;20092;-82
2024/01/28 03:23:54;;;;;;;17.70;5.90;;;1.90;99.90;;;;;;4987242;28;20034;-82
2024/01/28 03:26:20;;;;;;;14.68;6.03;;;2.60;99.90;;;;;;4987862;28;20522;-82
2024/01/28 03:28:46;;;;;;;14.05;6.07;;;1.90;99.90;;;;;;4972437;28;20034;-82
2024/01/28 03:31:12;;;;;;;14.70;5.55;;;1.90;99.90;;;;;;4989026;28;20073;-82
2024/01/28 03:33:37;;;;;;;16.52;6.32;;;3.80;99.90;;;;;;5003461;28;20088;-82
2024/01/28 03:36:03;;;;;;;14.30;5.68;;;3.60;99.90;;;;;;4970787;28;20049;-82
2024/01/28 03:38:29;;;;;;;15.65;5.60;;;2.00;99.90;;;;;;4968355;28;20058;-82
2024/01/28 03:40:54;;;;;;;15.02;6.35;;;2.10;99.90;;;;;;4954364;28;20043;-82
2024/01/28 03:43:20;;;;;;;14.57;5.53;;;3.60;99.90;;;;;;4971969;28;20057;-82
2024/01/28 03:45:46;;;;;;;17.05;6.05;;;3.40;99.90;;;;;;4985643;28;20045;-82
2024/01/28 03:48:12;;;;;;;14.70;5.90;;;3.00;99.90;;;;;;4972902;28;20086;-82
2024/01/28 03:50:37;;;;;;;13.35;5.40;;;2.10;99.90;;;;;;5004406;28;20118;-82
2024/01/28 03:53:04;;;;;;;17.50;6.75;;;3.00;99.90;;;;;;4986043;28;20531;-82
2024/01/28 03:55:30;;;;;;;16.63;5.68;;;2.10;99.90;;;;;;5018165;28;20140;-82
2024/01/28 03:57:56;;;;;;;15.20;6.18;;;2.10;99.90;;;;;;5000857;28;20515;-82
2024/01/28 04:00:28;;;;;;;15.02;5.93;;;3.50;99.90;;;;;;4986028;28;20121;-82
2024/01/28 04:02:54;;;;;;;15.30;5.85;;;3.50;99.90;;;;;;4969783;28;20049;-82
2024/01/28 04:05:20;;;;;;;16.67;6.57;;;2.00;99.90;;;;;;4973238;28;20030;-82
2024/01/28 04:07:46;;;;;;;15.43;6.35;;;2.00;99.90;;;;;;4964159;28;20034;-82
2024/01/28 04:10:15;;;;;;;16.17;6.78;;;2.10;99.90;;;;;;4984499;28;20050;-82
2024/01/28 04:12:41;;;;;;;12.35;5.82;;;1.90;99.90;;;;;;4981886;28;20042;-82
2024/01/28 04:15:07;;;;;;;13.77;5.60;;;2.20;99.90;;;;;;4969914;28;20109;-82
2024/01/28 04:17:33;;;;;;;15.93;5.97;;;2.00;99.90;;;;;;4970431;28;20042;-82
2024/01/28 04:19:59;;;;;;;14.45;6.05;;;2.00;99.90;;;;;;4989585;28;20046;-82
2024/01/28 04:22:24;;;;;;;15.10;5.85;;;2.30;99.90;;;;;;4985254;28;20042;-82
2024/01/28 04:24:50;;;;;;;16.20;6.55;;;3.50;99.90;;;;;;4945532;28;20050;-82
2024/01/28 04:27:16;;;;;;;18.75;6.50;;;2.20;99.90;;;;;;4988021;28;20045;-82
2024/01/28 04:29:41;;;;;;;16.75;6.28;;;2.30;99.90;;;;;;4953654;28;20133;-82
2024/01/28 04:32:10;;;;;;;13.57;5.72;;;1.90;99.90;;;;;;4967144;28;20039;-82
2024/01/28 04:34:36;;;;;;;14.02;6.43;;;1.80;99.90;;;;;;4969559;28;20042;-82
2024/01/28 04:37:02;;;;;;;16.35;6.30;;;1.80;99.90;;;;;;4970159;28;20042;-82
2024/01/28 04:39:28;;;;;;;16.60;6.93;;;1.80;99.90;;;;;;4968306;28;20565;-82
2024/01/28 04:41:53;;;;;;;14.10;6.20;;;1.70;99.90;;;;;;4985358;28;20066;-82
2024/01/28 04:44:20;;;;;;;14.30;5.53;;;3.30;99.90;;;;;;4970880;28;20103;-82
2024/01/28 04:46:46;;;;;;;17.35;7.18;;;3.20;99.90;;;;;;4986259;28;20130;-83
2024/01/28 04:49:12;;;;;;;15.05;5.93;;;1.70;99.90;;;;;;4966020;28;20166;-81
2024/01/28 04:51:37;;;;;;;13.50;5.70;;;1.70;99.90;;;;;;4985769;28;20088;-82
2024/01/28 04:54:03;;;;;;;14.90;6.03;;;1.60;99.90;;;;;;4987098;28;20116;-82
2024/01/28 04:56:29;;;;;;;15.70;6.20;;;1.60;99.90;;;;;;4958070;28;20042;-82
2024/01/28 04:58:55;;;;;;;14.77;5.72;;;1.60;99.90;;;;;;4955012;28;20046;-82
2024/01/28 05:01:20;;;;;;;15.95;7.18;;;2.00;99.90;;;;;;4974528;28;20049;-82
2024/01/28 05:03:46;;;;;;;15.05;6.43;;;1.50;99.90;;;;;;5004121;28;20096;-82
2024/01/28 05:06:12;;;;;;;13.93;6.20;;;1.50;99.90;;;;;;4954038;28;20508;-82
2024/01/28 05:08:37;;;;;;;14.85;6.50;;;1.50;99.90;;;;;;4968024;28;20034;-82
2024/01/28 05:11:03;;;;;;;15.73;6.68;;;2.50;99.90;;;;;;4969671;28;20487;-82
2024/01/28 05:13:29;;;;;;;12.93;6.10;;;1.40;99.90;;;;;;4947800;28;20038;-82
2024/01/28 05:15:56;;;;;;;17.88;6.05;;;1.50;99.90;;;;;;4969560;28;20492;-82
2024/01/28 05:18:22;;;;;;;15.23;6.32;;;1.50;99.90;;;;;;4968776;28;20105;-83
2024/01/28 05:20:48;;;;;;;16.63;6.18;;;1.90;99.90;;;;;;4990985;28;20081;-82
2024/01/28 05:23:14;;;;;;;14.35;6.00;;;1.70;99.90;;;;;;4998800;28;20147;-82
2024/01/28 05:25:40;;;;;;;15.27;5.88;;;1.40;99.90;;;;;;4958231;28;20050;-82
2024/01/28 05:28:07;;;;;;;13.27;5.95;;;1.30;99.90;;;;;;4987314;28;20035;-82
2024/01/28 05:30:33;;;;;;;17.45;6.15;;;1.40;99.90;;;;;;4983093;28;20480;-82
2024/01/28 05:32:59;;;;;;;12.93;5.68;;;1.50;99.90;;;;;;5000371;28;20129;-82
2024/01/28 05:35:25;;;;;;;14.60;5.97;;;1.50;99.90;;;;;;4983981;28;20516;-83
2024/01/28 05:37:50;;;;;;;12.25;5.80;;;2.70;99.90;;;;;;4983562;28;20030;-83
2024/01/28 05:40:16;;;;;;;15.93;6.50;;;2.30;99.90;;;;;;4983957;28;20138;-82
2024/01/28 05:42:42;;;;;;;16.85;6.15;;;1.20;99.90;;;;;;4984865;28;20121;-82
2024/01/28 05:45:09;;;;;;;14.68;5.97;;;1.30;99.90;;;;;;4968213;28;20041;-82
2024/01/28 05:47:34;;;;;;;13.20;6.25;;;1.30;99.90;;;;;;4971785;28;20455;-82
2024/01/28 05:50:02;;;;;;;14.40;6.45;;;2.90;99.90;;;;;;4984809;28;20042;-82
2024/01/28 05:52:28;;;;;;;14.52;5.88;;;1.30;99.90;;;;;;4982916;28;20038;-82
2024/01/28 05:54:53;;;;;;;14.60;5.90;;;1.60;99.90;;;;;;4968435;28;20042;-82
2024/01/28 05:57:19;;;;;;;16.92;6.82;;;2.00;99.90;;;;;;4953497;28;20049;-82
2024/01/28 05:59:45;;;;;;;14.30;6.10;;;2.00;99.90;;;;;;4957716;28;20042;-82
2024/01/28 06:02:11;;;;;;;14.80;6.70;;;1.90;99.90;;;;;;5000336;28;20049;-82
2024/01/28 06:04:37;;;;;;;15.02;5.90;;;2.40;99.90;;;;;;4983631;28;20034;-83
2024/01/28 06:07:03;;;;;;;14.95;6.13;;;1.80;99.90;;;;;;4986462;28;20049;-82
2024/01/28 06:09:29;;;;;;;15.88;6.30;;;1.20;99.90;;;;;;4985106;28;20047;-82
2024/01/28 06:11:55;;;;;;;16.50;6.35;;;2.80;99.90;;;;;;4968784;28;20097;-82
2024/01/28 06:14:20;;;;;;;15.35;7.13;;;2.30;99.90;;;;;;4980634;28;20473;-82
2024/01/28 06:16:46;;;;;;;13.02;6.68;;;1.20;99.90;;;;;;4958782;28;20038;-82
2024/01/28 06:19:12;;;;;;;15.43;5.97;;;1.20;99.90;;;;;;5001208;28;20042;-82
2024/01/28 06:21:37;;;;;;;14.32;5.88;;;1.20;99.90;;;;;;4968887;28;20061;-82
2024/01/28 06:24:03;;;;;;;15.30;6.82;;;1.80;99.90;;;;;;4966837;28;20069;-82
2024/01/28 06:26:29;;;;;;;16.20;5.93;;;1.10;99.90;;;;;;4958867;28;20500;-83
2024/01/28 06:28:55;;;;;;;17.02;5.93;;;1.20;99.90;;;;;;4987861;28;20034;-82
2024/01/28 06:31:20;;;;;;;12.55;6.18;;;2.20;99.90;;;;;;4966433;28;20838;-82
2024/01/28 06:33:46;;;;;;;17.02;6.43;;;2.30;99.90;;;;;;5004826;28;20030;-82
2024/01/28 06:36:21;;;;;;;14.63;6.38;;;1.10;99.90;;;;;;4983699;28;20508;-83
2024/01/28 06:38:47;;;;;;;15.85;5.97;;;1.00;99.90;;;;;;4983773;28;20085;-82
2024/01/28 06:41:14;;;;;;;13.50;6.03;;;2.90;99.90;;;;;;4962991;28;20046;-82
2024/01/28 06:43:40;;;;;;;16.48;6.38;;;0.90;99.90;;;;;;4965265;28;20042;-83
2024/01/28 06:46:06;;;;;;;16.75;5.88;;;1.00;99.90;;;;;;4982741;28;20440;-83
2024/01/28 06:48:31;;;;;;;12.63;5.95;;;2.50;99.90;;;;;;4972494;28;20069;-83
2024/01/28 06:50:57;;;;;;;12.63;5.75;;;0.90;99.90;;;;;;4973172;28;20034;-82
2024/01/28 06:53:23;;;;;;;13.90;5.90;;;1.40;99.90;;;;;;4970571;28;20523;-82
2024/01/28 06:55:48;;;;;;;14.63;5.75;;;0.90;99.90;;;;;;4955910;28;20035;-82
2024/01/28 06:58:14;;;;;;;14.35;6.28;;;0.80;99.90;;;;;;4987432;28;20056;-83
2024/01/28 07:00:40;;;;;;;15.98;5.88;;;1.70;99.90;;;;;;4971153;28;20046;-82
2024/01/28 07:03:06;;;;;;;15.32;5.95;;;0.80;99.90;;;;;;4985958;28;20061;-83
2024/01/28 07:05:31;;;;;;;14.90;5.88;;;0.80;99.90;;;;;;4956243;28;20053;-83
2024/01/28 07:07:57;;;;;;;13.68;6.18;;;0.80;99.90;;;;;;4973458;28;20116;-82
2024/01/28 07:10:22;;;;;;;13.15;6.25;;;0.80;99.90;;;;;;4972346;28;20045;-83
2024/01/28 07:12:48;;;;;;;15.13;6.40;;;0.80;99.90;;;;;;4964684;28;20038;-82
2024/01/28 07:15:14;;;;;;;13.48;5.97;;;1.00;99.90;;;;;;4988565;28;20141;-82
2024/01/28 07:17:40;;;;;;;13.55;6.65;;;0.80;99.90;;;;;;4985739;28;20042;-82
2024/01/28 07:20:06;;;;;;;15.38;5.85;;;0.80;99.90;;;;;;4970685;28;20042;-83
2024/01/28 07:22:32;;;;;;;15.75;6.40;;;0.80;99.90;;;;;;4983546;28;20042;-84
2024/01/28 07:24:58;;;;;;;13.93;6.65;;;0.80;99.90;;;;;;4968636;28;20561;-84
2024/01/28 07:27:23;;;;;;;15.10;7.15;;;2.60;99.90;;;;;;5006933;28;20033;-85
2024/01/28 07:29:49;;;;;;;16.95;6.25;;;0.80;99.90;;;;;;4979671;28;20037;-85
2024/01/28 07:32:16;;;;;;;14.55;6.60;;;1.60;99.90;;;;;;4982605;28;20448;-85
2024/01/28 07:34:41;;;;;;;14.18;6.80;;;2.60;99.90;;;;;;4979365;28;20260;-85
2024/01/28 07:37:07;;;;;;;14.93;6.43;;;0.80;99.90;;;;;;4970829;28;20495;-85
2024/01/28 07:39:33;;;;;;;13.75;6.53;;;1.20;99.90;;;;;;4967308;28;20065;-84
2024/01/28 07:41:58;;;;;;;13.32;6.00;;;1.50;99.90;;;;;;4942138;28;20039;-85
2024/01/28 07:44:25;;;;;;;14.05;6.00;;;0.70;99.90;;;;;;4991885;28;20050;-84
2024/01/28 07:46:54;;;;;;;14.77;7.15;;;0.80;99.90;;;;;;4974833;28;20034;-85
2024/01/28 07:49:20;;;;;;;11.52;5.97;;;2.20;99.90;;;;;;4971204;28;20503;-84
2024/01/28 07:51:46;;;;;;;14.35;6.25;;;0.90;99.90;;;;;;4999517;28;20050;-84
2024/01/28 07:54:12;;;;;;;13.80;6.00;;;0.80;99.90;;;;;;4959597;28;20050;-85
2024/01/28 07:56:37;;;;;;;15.25;5.68;;;0.90;99.90;;;;;;4998967;28;20571;-84
2024/01/28 07:59:03;;;;;;;14.57;6.43;;;0.90;99.90;;;;;;4986514;28;20046;-85
2024/01/28 08:01:30;;;;;;;14.45;6.10;;;2.90;99.90;;;;;;4979836;28;20108;-84
2024/01/28 08:03:59;;;;;;;12.43;6.47;;;0.90;99.90;;;;;;4964064;28;20439;-85
2024/01/28 08:06:27;;;;;;;11.13;5.60;;;0.90;99.90;;;;;;4984406;28;20579;-84
2024/01/28 08:08:56;;;;;;;12.68;5.63;;;1.90;99.90;;;;;;4943542;28;20042;-85
2024/01/28 08:11:21;;;;;;;13.35;6.40;;;2.20;99.90;;;;;;4983657;28;20519;-84
2024/01/28 08:13:48;;;;;;;13.80;6.13;;;2.40;99.90;;;;;;4988066;28;20042;-84
2024/01/28 08:16:14;;;;;;;14.85;5.93;;;1.60;99.90;;;;;;4960303;28;20034;-84
2024/01/28 08:18:40;;;;;;;13.18;6.35;;;1.30;99.90;;;;;;4958936;28;20065;-84
2024/01/28 08:21:05;;;;;;;12.55;5.47;;;1.20;99.90;;;;;;4983022;28;20069;-85
2024/01/28 08:23:33;;;;;;;14.07;5.95;;;2.60;99.90;;;;;;5005329;28;20046;-84
2024/01/28 08:25:59;;;;;;;17.00;6.20;;;1.30;99.90;;;;;;4959131;28;20042;-84
2024/01/28 08:28:24;;;;;;;13.35;5.68;;;2.60;99.90;;;;;;4974437;28;20530;-85
2024/01/28 08:30:50;;;;;;;15.88;6.63;;;2.80;99.90;;;;;;4978465;28;20030;-85
2024/01/28 08:33:16;;;;;;;14.02;5.35;;;1.40;99.90;;;;;;4959092;28;20045;-84
2024/01/28 08:35:43;;;;;;;11.57;5.30;;;1.40;99.90;;;;;;4986399;28;20034;-84
2024/01/28 08:38:10;;;;;;;11.73;5.20;;;1.30;99.90;;;;;;4988324;28;20048;-84
2024/01/28 08:40:36;;;;;;;13.00;5.18;;;2.70;99.90;;;;;;4972687;28;20037;-84
2024/01/28 08:43:04;;;;;;;12.38;5.30;;;2.80;99.90;;;;;;4977219;28;20042;-84
2024/01/28 08:45:30;;;;;;;14.63;5.30;;;2.30;99.90;;;;;;4960812;28;20030;-84
2024/01/28 08:47:55;;;;;;;11.55;5.30;;;1.20;99.90;;;;;;4990024;28;20045;-84
2024/01/28 08:50:23;;;;;;;14.02;5.80;;;1.20;99.90;;;;;;4989088;28;20076;-84
2024/01/28 08:52:51;;;;;;;13.43;5.03;;;1.40;99.90;;;;;;4964251;28;20041;-84
2024/01/28 08:55:17;;;;;;;13.18;5.72;;;1.50;99.90;;;;;;4963508;28;20117;-84
2024/01/28 08:57:42;;;;;;;12.90;5.28;;;2.90;99.90;;;;;;4980348;28;20134;-84
2024/01/28 09:00:11;;;;;;;14.40;5.28;;;2.70;99.90;;;;;;4990717;28;20042;-84
2024/01/28 09:02:38;;;;;;;15.10;5.70;;;1.80;99.90;;;;;;4971750;28;20038;-85
2024/01/28 09:05:04;;;;;;;12.55;5.22;;;2.70;99.90;;;;;;4959984;28;20121;-84
2024/01/28 09:07:30;;;;;;;12.57;5.80;;;1.80;99.90;;;;;;5005077;28;20340;-84
2024/01/28 09:09:56;;;;;;;11.25;4.80;;;1.80;99.90;;;;;;4972409;28;20073;-84
2024/01/28 09:12:24;;;;;;;11.52;5.05;;;1.80;99.90;;;;;;5005576;28;20034;-84
2024/01/28 09:14:49;;;;;;;14.57;5.03;;;1.80;99.90;;;;;;5005754;28;20403;-84
2024/01/28 09:17:15;;;;;;;12.30;5.03;;;2.50;99.90;;;;;;4972091;28;20042;-84
2024/01/28 09:19:41;;;;;;;11.98;5.32;;;2.00;99.90;;;;;;5004432;28;20038;-84
2024/01/28 09:22:06;;;;;;;12.95;4.90;;;2.90;99.90;;;;;;4966924;28;20062;-84
2024/01/28 09:24:32;;;;;;;12.35;4.57;;;2.40;99.90;;;;;;4940776;28;20046;-84
2024/01/28 09:26:58;;;;;;;12.68;5.65;;;2.30;99.90;;;;;;4989864;28;20143;-84
2024/01/28 09:29:26;;;;;;;13.15;4.97;;;2.40;99.90;;;;;;4972411;28;20053;-84
2024/01/28 09:31:52;;;;;;;11.82;5.00;;;3.50;99.90;;;;;;5019344;28;20042;-84
2024/01/28 09:34:17;;;;;;;10.68;4.45;;;2.60;99.90;;;;;;5005249;28;20034;-84
2024/01/28 09:36:44;;;;;;;11.48;4.45;;;2.80;99.90;;;;;;4958274;28;20794;-84
2024/01/28 09:39:11;;;;;;;10.65;4.10;;;2.80;99.90;;;;;;4988358;28;20058;-84
2024/01/28 09:41:50;;;;;;;11.38;4.15;;;2.80;99.90;;;;;;4971705;28;20117;-84
2024/01/28 09:44:16;;;;;;;12.07;4.43;;;2.90;99.90;;;;;;4973746;28;20092;-84
2024/01/28 09:46:42;;;;;;;13.40;4.40;;;2.90;99.90;;;;;;4989096;28;20527;-84
2024/01/28 09:49:11;;;;;;;10.15;4.05;;;3.00;99.90;;;;;;4965935;28;20035;-84
2024/01/28 09:51:38;;;;;;;14.50;4.57;;;3.10;99.90;;;;;;4993710;28;20038;-84
2024/01/28 09:54:04;;;;;;;11.90;4.10;;;4.40;99.90;;;;;;4988808;28;20561;-84
2024/01/28 09:56:32;;;;;;;9.40;4.30;;;3.60;99.90;;;;;;4987145;28;20042;-84
2024/01/28 09:58:59;;;;;;;11.82;4.32;;;3.60;99.90;;;;;;5020623;28;20463;-84
2024/01/28 10:01:26;;;;;;;11.80;3.75;;;4.00;99.90;;;;;;4973146;28;20049;-83
2024/01/28 10:03:53;;;;;;;10.45;4.00;;;3.70;99.90;;;;;;4973233;28;20456;-83
2024/01/28 10:06:19;;;;;;;13.40;4.32;;;3.90;99.90;;;;;;4989102;28;20050;-83
2024/01/28 10:08:46;;;;;;;9.85;4.00;;;3.80;99.90;;;;;;4969802;28;20096;-83
2024/01/28 10:11:14;;;;;;;9.82;4.03;;;3.70;99.90;;;;;;5020639;28;20412;-83
2024/01/28 10:13:40;;;;;;;9.07;3.63;;;3.70;99.90;;;;;;4983311;28;20035;-83
2024/01/28 10:16:06;;;;;;;10.43;3.90;;;3.60;99.90;;;;;;5005124;28;20433;-83
2024/01/28 10:18:32;;;;;;;9.18;3.65;;;3.70;99.90;;;;;;4972213;28;20129;-83
2024/01/28 10:20:58;;;;;;;11.35;3.38;;;3.70;99.90;;;;;;4989456;28;20117;-83
2024/01/28 10:23:24;;;;;;;11.15;4.00;;;3.60;99.90;;;;;;4992211;28;20046;-84
2024/01/28 10:25:50;;;;;;;11.10;3.70;;;3.60;99.90;;;;;;4975998;28;20045;-83
2024/01/28 10:28:19;;;;;;;13.38;3.78;;;4.10;99.90;;;;;;4975267;28;20513;-83
2024/01/28 10:30:48;;;;;;;10.07;3.70;;;3.60;99.90;;;;;;4970839;28;20042;-83
2024/01/28 10:33:14;;;;;;;11.98;4.22;;;3.60;99.90;;;;;;4975234;28;20034;-83
2024/01/28 10:35:40;;;;;;;9.20;3.50;;;3.60;99.90;;;;;;4959980;28;20049;-83
2024/01/28 10:38:11;;;;;;;10.85;3.42;;;3.60;99.90;;;;;;4991261;28;20050;-83
2024/01/28 10:40:40;;;;;;;12.43;4.07;;;3.60;99.90;;;;;;4999217;28;20053;-83
2024/01/28 10:43:12;;;;;;;8.90;3.45;;;3.70;99.90;;;;;;4975717;28;20038;-83
2024/01/28 10:45:44;;;;;;;9.32;3.28;;;3.70;99.90;;;;;;4975828;28;20061;-83
2024/01/28 10:48:17;;;;;;;10.43;3.83;;;3.90;99.90;;;;;;4984411;28;20045;-83
2024/01/28 10:50:43;;;;;;;11.90;3.78;;;4.50;99.90;;;;;;4956241;28;20034;-83
2024/01/28 10:53:12;;;;;;;10.18;3.53;;;4.10;99.90;;;;;;4952912;28;20037;-83
2024/01/28 10:55:39;;;;;;;10.07;3.35;;;4.20;99.90;;;;;;4973020;28;20581;-83
2024/01/28 10:58:05;;;;;;;9.77;3.60;;;4.40;99.90;;;;;;5007205;28;20432;-82
2024/01/28 11:00:31;;;;;;;11.00;3.25;;;4.50;99.90;;;;;;4976494;28;20045;-82
2024/01/28 11:03:01;;;;;;;9.52;3.65;;;4.60;99.90;;;;;;4975356;28;20069;-83
2024/01/28 11:05:27;;;;;;;9.07;3.42;;;4.90;99.90;;;;;;4991854;28;20463;-83
2024/01/28 11:07:59;;;;;;;8.55;3.45;;;5.50;99.90;;;;;;4975098;28;20056;-82
2024/01/28 11:10:28;;;;;;;9.40;3.45;;;4.80;99.90;;;;;;4975443;28;20683;-83
2024/01/28 11:12:56;;;;;;;10.45;3.50;;;4.90;99.90;;;;;;4992166;28;20065;-83
2024/01/28 11:15:23;;;;;;;8.68;3.25;;;5.30;99.90;;;;;;4976006;28;20038;-83
2024/01/28 11:17:50;;;;;;;8.70;3.22;;;5.10;99.90;;;;;;4976376;28;20655;-82
2024/01/28 11:20:27;;;;;;;9.43;3.33;;;5.20;99.90;;;;;;4991325;28;20050;-82
2024/01/28 11:23:01;;;;;;;8.32;3.28;;;5.30;99.90;;;;;;4990364;28;20049;-83
2024/01/28 11:25:30;;;;;;;9.07;3.00;;;5.70;99.90;;;;;;4981805;28;20050;-82
2024/01/28 11:28:01;;;;;;;9.23;3.03;;;5.40;99.90;;;;;;4975956;28;20081;-83
2024/01/28 11:30:28;;;;;;;8.00;3.28;;;5.50;99.90;;;;;;4991829;28;20212;-83
2024/01/28 11:33:10;;;;;;;10.05;3.08;;;5.60;99.90;;;;;;4970700;28;20035;-83
2024/01/28 11:35:36;;;;;;;8.17;3.23;;;5.70;99.90;;;;;;4985568;28;20105;-82
2024/01/28 11:38:05;;;;;;;7.70;2.67;;;5.80;99.90;;;;;;4954967;28;20038;-83
2024/01/28 11:40:35;;;;;;;8.32;2.97;;;5.90;99.90;;;;;;4989693;28;20500;-82
2024/01/28 11:43:05;;;;;;;8.75;2.80;;;6.00;99.90;;;;;;4974802;28;20074;-82
2024/01/28 11:45:31;;;;;;;9.35;2.83;;;6.00;99.90;;;;;;5008059;28;20556;-82
2024/01/28 11:47:57;;;;;;;8.95;2.75;;;6.10;99.90;;;;;;4991388;28;20053;-83
2024/01/28 11:50:24;;;;;;;8.07;2.60;;;6.20;99.90;;;;;;4958870;28;20043;-82
2024/01/28 11:52:50;;;;;;;8.50;2.70;;;6.20;99.90;;;;;;4991870;28;20039;-83
2024/01/28 11:55:17;;;;;;;8.48;2.70;;;6.30;99.90;;;;;;4958516;28;20381;-82
2024/01/28 11:57:45;;;;;;;8.98;2.80;;;6.30;99.90;;;;;;4975092;28;20073;-82
2024/01/28 12:00:12;;;;;;;8.63;2.55;;;6.40;99.90;;;;;;5004554;28;20408;-82
2024/01/28 12:02:41;;;;;;;9.10;2.90;;;6.50;99.90;;;;;;4988885;28;20133;-82
2024/01/28 12:05:08;;;;;;;6.97;2.40;;;6.50;99.90;;;;;;4974330;28;20076;-82
2024/01/28 12:07:36;;;;;;;7.95;2.55;;;6.60;99.90;;;;;;4973620;28;20034;-83
2024/01/28 12:10:05;;;;;;;7.80;2.50;;;6.60;99.90;;;;;;4989962;28;20046;-83
2024/01/28 12:12:34;;;;;;;9.23;2.75;;;6.70;99.90;;;;;;4971637;28;20039;-82
2024/01/28 12:15:04;;;;;;;8.57;2.80;;;6.70;99.90;;;;;;4983412;28;20038;-83
2024/01/28 12:17:34;;;;;;;7.55;2.50;;;6.70;99.90;;;;;;4986249;28;20078;-83
2024/01/28 12:20:00;;;;;;;7.55;2.70;;;6.80;99.90;;;;;;5001622;28;20599;-82
2024/01/28 12:22:26;;;;;;;9.32;2.58;;;6.80;99.90;;;;;;4970899;28;20130;-82
2024/01/28 12:24:52;;;;;;;9.13;2.72;;;6.90;99.90;;;;;;5018347;28;20038;-83
2024/01/28 12:27:18;;;;;;;8.95;2.80;;;6.90;99.90;;;;;;4966173;28;20058;-82
2024/01/28 12:29:45;;;;;;;8.70;2.70;;;7.00;99.90;;;;;;4969292;28;20051;-82
2024/01/28 12:32:11;;;;;;;8.82;2.70;;;7.10;99.90;;;;;;4964767;28;20041;-82
2024/01/28 12:34:36;;;;;;;9.02;2.70;;;7.00;99.90;;;;;;4965463;28;20034;-82
2024/01/28 12:37:03;;;;;;;8.32;2.53;;;7.00;99.90;;;;;;4968856;28;20042;-83
2024/01/28 12:39:29;;;;;;;8.65;2.65;;;7.10;99.90;;;;;;4966677;28;20050;-82
2024/01/28 12:41:55;;;;;;;7.70;2.60;;;7.10;99.90;;;;;;4984253;28;20045;-83
2024/01/28 12:44:21;;;;;;;9.18;2.78;;;7.10;99.90;;;;;;5009273;28;20046;-82